Time;durP1;ratioP1;P1;durP2;ratioP2;P2;SDS_P1;SDS_P2;PMS_P1;PMS_P2;Temp;Humidity;BMP_temperature;BMP_pressure;BME280_temperature;BME280_humidity;BME280_pressure;Samples;Min_cycle;Max_cycle;Signal;HPM_P1;HPM_P2
2023/12/21 00:00:13;;;;;;;2.07;1.93;;;;;;;3.04;100.00;98767.03;5070396;28;20203;-69
2023/12/21 00:02:39;;;;;;;2.80;1.77;;;;;;;3.06;100.00;98775.47;5071164;28;20207;-69
2023/12/21 00:05:07;;;;;;;1.17;1.17;;;;;;;3.01;100.00;98767.06;5070837;28;20262;-69
2023/12/21 00:07:33;;;;;;;2.53;2.40;;;;;;;2.96;100.00;98768.81;5070712;28;20200;-69
2023/12/21 00:10:00;;;;;;;2.13;2.13;;;;;;;2.96;100.00;98767.97;5071100;28;20584;-69
2023/12/21 00:12:27;;;;;;;1.17;1.17;;;;;;;2.94;100.00;98769.69;5072315;28;20200;-68
2023/12/21 00:14:53;;;;;;;2.03;2.03;;;;;;;2.95;100.00;98772.19;5070731;28;21591;-69
2023/12/21 00:17:21;;;;;;;2.23;2.23;;;;;;;2.94;100.00;98765.44;5072022;28;20687;-69
2023/12/21 00:19:48;;;;;;;2.83;2.60;;;;;;;2.92;100.00;98764.63;5069114;28;20273;-69
2023/12/21 00:22:15;;;;;;;1.30;1.30;;;;;;;2.84;100.00;98752.91;5073608;28;20192;-68
2023/12/21 00:24:41;;;;;;;1.40;1.37;;;;;;;2.91;100.00;98768.00;5071266;28;20196;-68
2023/12/21 00:27:07;;;;;;;0.70;0.70;;;;;;;2.88;100.00;98765.50;5070828;28;20191;-68
2023/12/21 00:29:34;;;;;;;2.63;2.43;;;;;;;2.85;100.00;98757.94;5070691;28;20585;-68
2023/12/21 00:32:01;;;;;;;1.37;1.37;;;;;;;2.87;100.00;98758.78;5070446;28;20200;-68
2023/12/21 00:34:29;;;;;;;2.70;2.70;;;;;;;2.84;100.00;98761.34;5071021;28;20226;-68
2023/12/21 00:36:56;;;;;;;0.87;0.87;;;;;;;2.81;100.00;98771.47;5072224;28;20270;-68
2023/12/21 00:39:22;;;;;;;1.00;1.00;;;;;;;2.78;100.00;98768.16;5070569;28;20192;-68
2023/12/21 00:41:49;;;;;;;0.93;0.93;;;;;;;2.77;100.00;98759.72;5070961;28;20656;-69
2023/12/21 00:44:16;;;;;;;1.30;1.30;;;;;;;2.76;100.00;98758.03;5070577;28;20623;-68
2023/12/21 00:46:42;;;;;;;1.30;1.30;;;;;;;2.67;100.00;98745.47;5071342;28;20195;-68
2023/12/21 00:49:08;;;;;;;0.70;0.70;;;;;;;2.53;100.00;98747.28;5070918;28;20265;-68
2023/12/21 00:51:36;;;;;;;1.97;1.97;;;;;;;2.53;100.00;98749.81;5069337;28;20227;-68
2023/12/21 00:54:03;;;;;;;0.70;0.70;;;;;;;2.43;100.00;98753.25;5071453;28;20665;-68
2023/12/21 00:56:30;;;;;;;1.23;1.23;;;;;;;2.38;100.00;98752.47;5070372;28;20207;-68
2023/12/21 00:58:59;;;;;;;1.53;1.47;;;;;;;2.29;100.00;98748.34;5071426;28;20208;-68
2023/12/21 01:01:26;;;;;;;1.43;1.43;;;;;;;2.34;100.00;98763.47;5070410;28;20223;-68
2023/12/21 01:03:52;;;;;;;1.17;1.17;;;;;;;2.25;100.00;98751.72;5070732;28;20261;-68
2023/12/21 01:06:19;;;;;;;1.27;1.27;;;;;;;2.27;100.00;98754.22;5070229;28;20222;-70
2023/12/21 01:08:47;;;;;;;3.33;3.23;;;;;;;2.32;100.00;98750.00;5070339;28;20200;-70
2023/12/21 01:11:14;;;;;;;1.20;1.20;;;;;;;2.37;100.00;98745.72;5069949;28;20231;-70
2023/12/21 01:13:41;;;;;;;1.03;1.03;;;;;;;2.29;100.00;98732.31;5070664;28;20250;-70
2023/12/21 01:16:08;;;;;;;1.83;1.83;;;;;;;2.23;100.00;98735.72;5070382;28;20223;-70
2023/12/21 01:18:34;;;;;;;1.27;1.27;;;;;;;2.11;100.00;98729.06;5072134;28;20687;-70
2023/12/21 01:21:01;;;;;;;1.60;1.00;;;;;;;2.08;100.00;98726.56;5073231;28;20200;-70
2023/12/21 01:23:28;;;;;;;0.70;0.70;;;;;;;2.02;100.00;98734.19;5070411;28;20207;-70
2023/12/21 01:25:56;;;;;;;1.03;1.03;;;;;;;1.87;100.00;98729.25;5068916;28;20239;-70
2023/12/21 01:28:22;;;;;;;0.80;0.80;;;;;;;1.71;100.00;98727.66;5069842;28;20192;-70
2023/12/21 01:30:49;;;;;;;1.37;1.37;;;;;;;1.67;100.00;98731.06;5069861;28;20200;-70
2023/12/21 01:33:16;;;;;;;0.93;0.93;;;;;;;1.70;100.00;98738.63;5070149;28;20207;-70
2023/12/21 01:35:43;;;;;;;1.10;1.10;;;;;;;1.64;100.00;98720.13;5070178;28;20212;-70
2023/12/21 01:38:10;;;;;;;0.70;0.70;;;;;;;1.72;100.00;98715.84;5070010;28;20274;-70
2023/12/21 01:40:36;;;;;;;1.30;1.30;;;;;;;1.70;100.00;98715.88;5070954;28;20264;-69
2023/12/21 01:43:05;;;;;;;1.47;1.47;;;;;;;1.71;100.00;98711.66;5071337;28;20642;-69
2023/12/21 01:45:31;;;;;;;3.03;1.53;;;;;;;1.62;100.00;98702.44;5071102;28;20261;-68
2023/12/21 01:47:58;;;;;;;0.70;0.70;;;;;;;1.73;100.00;98705.75;5071157;28;20208;-69
2023/12/21 01:50:26;;;;;;;7.53;2.60;;;;;;;1.71;100.00;98706.63;5071051;28;20680;-70
2023/12/21 01:52:55;;;;;;;1.23;1.23;;;;;;;1.69;100.00;98704.09;5070948;28;20664;-68
2023/12/21 01:55:23;;;;;;;1.10;1.10;;;;;;;1.73;100.00;98705.75;5069906;28;20219;-68
2023/12/21 01:57:51;;;;;;;1.30;1.30;;;;;;;1.78;100.00;98693.09;5071273;28;20313;-68
2023/12/21 02:00:19;;;;;;;2.33;2.30;;;;;;;1.87;100.00;98691.34;5069819;28;20265;-68
2023/12/21 02:02:46;;;;;;;1.10;1.10;;;;;;;2.02;100.00;98683.66;5071367;28;20204;-68
2023/12/21 02:05:13;;;;;;;1.53;1.47;;;;;;;2.25;100.00;98677.56;5073902;28;20188;-68
2023/12/21 02:07:40;;;;;;;1.43;1.43;;;;;;;2.40;100.00;98685.00;5072975;28;20635;-68
2023/12/21 02:10:07;;;;;;;0.80;0.80;;;;;;;2.63;100.00;98683.94;5070837;28;20261;-68
2023/12/21 02:12:34;;;;;;;1.13;1.13;;;;;;;2.78;100.00;98679.59;5075053;28;20192;-68
2023/12/21 02:15:00;;;;;;;0.60;0.60;;;;;;;2.92;100.00;98680.25;5072965;28;20267;-68
2023/12/21 02:17:30;;;;;;;1.00;1.00;;;;;;;3.04;100.00;98686.03;5073346;28;20637;-68
2023/12/21 02:19:58;;;;;;;0.60;0.60;;;;;;;3.12;100.00;98684.25;5072909;28;20203;-68
2023/12/21 02:22:28;;;;;;;1.73;1.63;;;;;;;3.25;100.00;98684.94;5073553;28;20195;-68
2023/12/21 02:24:56;;;;;;;0.83;0.83;;;;;;;3.41;100.00;98685.56;5075552;28;20699;-68
2023/12/21 02:27:23;;;;;;;1.10;1.10;;;;;;;3.45;100.00;98685.53;5073016;28;20200;-68
2023/12/21 02:29:50;;;;;;;2.73;1.80;;;;;;;3.43;100.00;98677.09;5076943;28;20680;-68
2023/12/21 02:32:17;;;;;;;0.73;0.73;;;;;;;3.51;100.00;98677.00;5075969;28;20192;-68
2023/12/21 02:34:44;;;;;;;0.60;0.60;;;;;;;3.39;100.00;98662.81;5072918;28;20204;-68
2023/12/21 02:37:11;;;;;;;0.70;0.70;;;;;;;3.36;100.00;98662.00;5071616;28;20200;-68
2023/12/21 02:39:37;;;;;;;1.07;1.07;;;;;;;3.44;100.00;98670.34;5072730;28;20273;-68
2023/12/21 02:42:06;;;;;;;1.73;1.67;;;;;;;3.46;100.00;98676.22;5072729;28;20226;-68
2023/12/21 02:44:32;;;;;;;0.60;0.60;;;;;;;3.50;100.00;98670.25;5073976;28;20542;-68
2023/12/21 02:46:59;;;;;;;1.10;1.00;;;;;;;3.50;100.00;98667.72;5072797;28;20200;-68
2023/12/21 02:49:26;;;;;;;1.10;1.10;;;;;;;3.51;100.00;98666.88;5074867;28;20249;-68
2023/12/21 02:51:55;;;;;;;1.00;1.00;;;;;;;3.59;100.00;98668.41;5073855;28;20226;-67
2023/12/21 02:54:21;;;;;;;1.70;1.70;;;;;;;3.65;100.00;98675.94;5079003;28;20199;-67
2023/12/21 02:56:48;;;;;;;0.90;0.90;;;;;;;3.73;100.00;98665.69;5073822;28;20749;-71
2023/12/21 02:59:16;;;;;;;0.83;0.83;;;;;;;3.70;100.00;98664.06;5072344;28;20196;-70
2023/12/21 03:01:43;;;;;;;0.50;0.50;;;;;;;3.62;100.00;98670.06;5072161;28;20196;-71
2023/12/21 03:04:10;;;;;;;1.37;1.37;;;;;;;3.62;100.00;98670.06;5075264;28;20267;-71
2023/12/21 03:06:37;;;;;;;1.77;1.77;;;;;;;3.59;100.00;98665.03;5072555;28;20245;-70
2023/12/21 03:09:03;;;;;;;2.50;1.70;;;;;;;3.58;100.00;98668.47;5072142;28;20200;-71
2023/12/21 03:11:30;;;;;;;0.90;0.90;;;;;;;3.49;100.00;98664.34;5072122;28;20654;-70
2023/12/21 03:13:57;;;;;;;1.27;1.27;;;;;;;3.47;100.00;98667.75;5072691;28;20246;-71
2023/12/21 03:16:25;;;;;;;1.27;1.27;;;;;;;3.43;100.00;98659.34;5073682;28;20212;-70
2023/12/21 03:18:52;;;;;;;0.80;0.80;;;;;;;3.43;100.00;98664.44;5072056;28;20662;-71
2023/12/21 03:21:18;;;;;;;0.90;0.90;;;;;;;3.43;100.00;98658.50;5071912;28;20265;-71
2023/12/21 03:23:45;;;;;;;2.17;2.07;;;;;;;3.49;100.00;98668.59;5072232;28;20314;-70
2023/12/21 03:26:12;;;;;;;1.23;1.23;;;;;;;3.26;100.00;98627.53;5074125;28;20188;-71
2023/12/21 03:28:44;;;;;;;0.70;0.70;;;;;;;3.51;100.00;98661.78;5072034;28;20664;-70
2023/12/21 03:31:11;;;;;;;1.90;1.90;;;;;;;3.51;100.00;98661.78;5071772;28;20635;-71
2023/12/21 03:33:39;;;;;;;0.97;0.97;;;;;;;3.58;100.00;98663.41;5073345;28;20200;-70
2023/12/21 03:36:07;;;;;;;1.07;1.07;;;;;;;3.66;100.00;98659.03;5074242;28;20277;-70
2023/12/21 03:38:33;;;;;;;2.37;2.27;;;;;;;3.67;100.00;98653.13;5071510;28;20246;-70
2023/12/21 03:41:00;;;;;;;1.53;1.53;;;;;;;3.78;100.00;98651.25;5072815;28;20249;-70
2023/12/21 03:43:27;;;;;;;0.60;0.60;;;;;;;3.81;100.00;98653.75;5074089;28;20561;-71
2023/12/21 03:45:53;;;;;;;0.93;0.93;;;;;;;3.89;100.00;98653.63;5072208;28;20195;-71
2023/12/21 03:48:20;;;;;;;1.00;1.00;;;;;;;3.85;100.00;98641.84;5071339;28;20257;-70
2023/12/21 03:50:48;;;;;;;0.73;0.73;;;;;;;3.94;100.00;98646.81;5070956;28;20281;-70
2023/12/21 03:53:16;;;;;;;1.23;1.23;;;;;;;3.86;100.00;98639.31;5072493;28;20261;-70
2023/12/21 03:55:43;;;;;;;0.83;0.83;;;;;;;3.99;100.00;98653.47;5070015;28;20684;-71
2023/12/21 03:58:10;;;;;;;0.70;0.70;;;;;;;3.99;100.00;98660.22;5071226;28;20246;-71
2023/12/21 04:00:37;;;;;;;1.07;1.07;;;;;;;4.00;100.00;98650.09;5071181;28;20200;-71
2023/12/21 04:03:04;;;;;;;0.67;0.67;;;;;;;4.09;100.00;98651.63;5073883;28;20200;-70
2023/12/21 04:05:31;;;;;;;0.70;0.70;;;;;;;4.19;100.00;98648.06;5071145;28;20265;-71
2023/12/21 04:07:59;;;;;;;0.93;0.93;;;;;;;4.22;100.00;98651.41;5071149;28;20744;-70
2023/12/21 04:10:27;;;;;;;1.20;1.20;;;;;;;4.23;100.00;98650.50;5070976;28;20196;-70
2023/12/21 04:12:53;;;;;;;0.83;0.83;;;;;;;4.23;100.00;98655.59;5070686;28;20200;-70
2023/12/21 04:15:20;;;;;;;0.60;0.60;;;;;;;4.26;100.00;98653.88;5071117;28;20204;-70
2023/12/21 04:17:47;;;;;;;0.80;0.80;;;;;;;4.32;100.00;98661.38;5070731;28;20674;-70
2023/12/21 04:20:13;;;;;;;1.00;1.00;;;;;;;4.28;100.00;98649.59;5067903;28;20200;-71
2023/12/21 04:22:40;;;;;;;0.90;0.90;;;;;;;4.39;100.00;98665.50;5072688;28;20204;-70
2023/12/21 04:25:09;;;;;;;0.93;0.93;;;;;;;4.40;100.00;98662.06;5070190;28;20250;-70
2023/12/21 04:27:36;;;;;;;0.70;0.70;;;;;;;4.39;100.00;98671.41;5072576;28;20200;-70
2023/12/21 04:30:03;;;;;;;0.93;0.93;;;;;;;4.37;100.00;98662.13;5070270;28;20196;-70
2023/12/21 04:32:29;;;;;;;0.90;0.90;;;;;;;4.38;100.00;98659.59;5071400;28;20196;-70
2023/12/21 04:34:56;;;;;;;0.70;0.70;;;;;;;4.45;100.00;98660.31;5073060;28;20673;-70
2023/12/21 04:37:23;;;;;;;1.37;1.37;;;;;;;4.38;100.00;98653.66;5072551;28;20651;-70
2023/12/21 04:39:49;;;;;;;1.17;1.17;;;;;;;4.47;100.00;98661.94;5070643;28;20204;-70
2023/12/21 04:42:17;;;;;;;1.50;1.47;;;;;;;4.59;100.00;98668.50;5070467;28;20195;-70
2023/12/21 04:44:44;;;;;;;1.43;1.43;;;;;;;4.61;100.00;98669.34;5070220;28;20200;-70
2023/12/21 04:47:10;;;;;;;0.70;0.70;;;;;;;4.69;100.00;98670.00;5071865;28;20223;-69
2023/12/21 04:49:37;;;;;;;1.00;1.00;;;;;;;4.73;100.00;98674.19;5074013;28;20613;-70
2023/12/21 04:52:04;;;;;;;1.60;1.60;;;;;;;4.77;100.00;98675.81;5072726;28;20650;-70
2023/12/21 04:54:31;;;;;;;4.00;1.43;;;;;;;4.76;100.00;98677.50;5072798;28;20295;-70
2023/12/21 04:56:58;;;;;;;1.27;1.27;;;;;;;4.75;100.00;98678.34;5070336;28;20215;-70
2023/12/21 04:59:27;;;;;;;1.30;1.30;;;;;;;4.81;100.00;98685.03;5070315;28;20260;-69
2023/12/21 05:01:56;;;;;;;1.37;1.27;;;;;;;4.85;100.00;98686.63;5072824;28;20204;-70
2023/12/21 05:04:23;;;;;;;7.40;2.20;;;;;;;4.83;100.00;98685.84;5070716;28;20203;-69
2023/12/21 05:06:49;;;;;;;1.93;1.90;;;;;;;4.83;100.00;98688.38;5070222;28;20227;-70
2023/12/21 05:09:16;;;;;;;2.27;2.17;;;;;;;4.80;100.00;98693.50;5070140;28;20196;-69
2023/12/21 05:11:43;;;;;;;1.60;1.60;;;;;;;4.83;100.00;98701.06;5070234;28;20199;-69
2023/12/21 05:14:10;;;;;;;0.83;0.83;;;;;;;4.81;100.00;98695.19;5071333;28;20200;-70
2023/12/21 05:16:40;;;;;;;1.00;1.00;;;;;;;4.81;100.00;98694.34;5071760;28;20216;-69
2023/12/21 05:19:07;;;;;;;1.73;1.63;;;;;;;4.75;100.00;98700.38;5070874;28;20234;-69
2023/12/21 05:21:34;;;;;;;0.70;0.70;;;;;;;4.74;100.00;98706.31;5070740;28;20193;-69
2023/12/21 05:24:01;;;;;;;0.80;0.80;;;;;;;4.73;100.00;98702.09;5070104;28;20199;-70
2023/12/21 05:26:27;;;;;;;1.70;1.70;;;;;;;4.70;100.00;98700.47;5072123;28;20199;-69
2023/12/21 05:28:57;;;;;;;1.13;1.13;;;;;;;4.69;100.00;98703.84;5070274;28;20204;-70
2023/12/21 05:31:24;;;;;;;1.80;1.80;;;;;;;4.68;100.00;98708.97;5070256;28;20261;-70
2023/12/21 05:33:53;;;;;;;1.63;1.63;;;;;;;4.69;100.00;98705.56;5071006;28;20262;-70
2023/12/21 05:36:23;;;;;;;4.37;1.77;;;;;;;4.66;100.00;98703.91;5073086;28;20556;-69
2023/12/21 05:38:50;;;;;;;1.27;1.27;;;;;;;4.61;100.00;98697.25;5083692;28;21475;-69
2023/12/21 05:41:18;;;;;;;1.00;1.00;;;;;;;4.61;100.00;98703.16;5072825;28;20196;-69
2023/12/21 05:43:44;;;;;;;1.10;1.10;;;;;;;4.61;100.00;98702.31;5071044;28;20250;-70
2023/12/21 05:46:11;;;;;;;1.00;1.00;;;;;;;4.58;100.00;98707.47;5074399;28;20757;-70
2023/12/21 05:48:38;;;;;;;2.57;2.50;;;;;;;4.58;100.00;98707.47;5083574;28;20217;-69
2023/12/21 05:51:06;;;;;;;1.40;1.40;;;;;;;4.48;100.00;98703.41;5095151;28;20326;-69
2023/12/21 05:53:33;;;;;;;1.57;1.47;;;;;;;4.48;100.00;98701.69;5084524;28;20638;-68
2023/12/21 05:56:01;;;;;;;1.17;1.17;;;;;;;4.42;100.00;98703.50;5074659;28;20270;-68
2023/12/21 05:58:28;;;;;;;1.63;1.53;;;;;;;4.39;100.00;98701.88;5074895;28;20294;-68
2023/12/21 06:00:55;;;;;;;0.70;0.70;;;;;;;4.38;100.00;98701.88;5074660;28;20261;-69
2023/12/21 06:03:22;;;;;;;1.47;1.47;;;;;;;4.33;100.00;98701.13;5074842;28;20231;-68
2023/12/21 06:05:49;;;;;;;0.93;0.93;;;;;;;4.31;100.00;98702.84;5074531;28;20684;-68
2023/12/21 06:08:17;;;;;;;0.70;0.70;;;;;;;4.32;100.00;98690.13;5075017;28;20214;-69
2023/12/21 06:10:43;;;;;;;1.77;1.67;;;;;;;4.32;100.00;98700.28;5074775;28;20200;-68
2023/12/21 06:13:10;;;;;;;1.53;1.53;;;;;;;4.32;100.00;98704.50;5074453;28;20336;-69
2023/12/21 06:15:37;;;;;;;1.27;1.27;;;;;;;4.29;100.00;98710.47;5074559;28;20204;-68
2023/12/21 06:18:05;;;;;;;1.27;1.27;;;;;;;4.31;100.00;98697.75;5074230;28;20222;-68
2023/12/21 06:20:35;;;;;;;0.70;0.70;;;;;;;4.33;100.00;98706.19;5074398;28;20257;-68
2023/12/21 06:23:01;;;;;;;1.93;1.83;;;;;;;4.36;100.00;98706.16;5074287;28;20715;-68
2023/12/21 06:25:29;;;;;;;0.53;0.53;;;;;;;4.38;100.00;98710.31;5074249;28;20204;-68
2023/12/21 06:27:56;;;;;;;1.73;1.73;;;;;;;4.29;100.00;98686.81;5074167;28;20228;-65
2023/12/21 06:30:23;;;;;;;0.60;0.60;;;;;;;4.45;100.00;98706.00;5074118;28;20207;-65
2023/12/21 06:32:50;;;;;;;1.53;1.53;;;;;;;4.51;100.00;98700.81;5073807;28;20258;-65
2023/12/21 06:35:17;;;;;;;1.10;1.10;;;;;;;4.57;100.00;98710.84;5073962;28;20203;-66
2023/12/21 06:37:45;;;;;;;1.07;1.07;;;;;;;4.65;100.00;98711.56;5076162;28;20673;-66
2023/12/21 06:40:12;;;;;;;1.93;1.93;;;;;;;4.60;100.00;98701.50;5089957;28;20265;-66
2023/12/21 06:42:40;;;;;;;1.00;1.00;;;;;;;4.68;100.00;98714.91;5073906;28;20729;-66
2023/12/21 06:45:07;;;;;;;0.87;0.87;;;;;;;4.75;100.00;98716.44;5074058;28;20250;-65
2023/12/21 06:47:34;;;;;;;0.60;0.60;;;;;;;4.81;100.00;98725.66;5073776;28;20193;-68
2023/12/21 06:50:01;;;;;;;1.30;1.30;;;;;;;4.85;100.00;98717.09;5072899;28;20207;-68
2023/12/21 06:52:27;;;;;;;0.90;0.90;;;;;;;4.97;100.00;98722.00;5073691;28;20231;-69
2023/12/21 06:54:54;;;;;;;0.80;0.80;;;;;;;5.05;100.00;98725.19;5073891;28;20204;-68
2023/12/21 06:57:21;;;;;;;1.00;1.00;;;;;;;5.11;100.00;98720.00;5073631;28;20228;-68
2023/12/21 06:59:49;;;;;;;3.20;1.00;;;;;;;5.25;100.00;98712.97;5074040;28;20231;-70
2023/12/21 07:02:16;;;;;;;0.80;0.80;;;;;;;5.41;100.00;98712.63;5076575;28;20595;-69
2023/12/21 07:04:43;;;;;;;2.73;1.30;;;;;;;5.52;100.00;98710.72;5073552;28;20200;-68
2023/12/21 07:07:09;;;;;;;0.77;0.77;;;;;;;5.64;100.00;98707.91;5073865;28;20204;-70
2023/12/21 07:09:36;;;;;;;0.70;0.70;;;;;;;5.76;100.00;98710.19;5073457;28;20665;-68
2023/12/21 07:12:05;;;;;;;1.70;1.70;;;;;;;5.87;100.00;98717.63;5073610;28;20203;-69
2023/12/21 07:14:32;;;;;;;1.60;1.60;;;;;;;5.92;100.00;98701.38;5073286;28;20257;-68
2023/12/21 07:17:00;;;;;;;1.40;0.73;;;;;;;6.05;100.00;98717.19;5073623;28;20220;-68
2023/12/21 07:19:26;;;;;;;1.10;1.10;;;;;;;6.15;100.00;98724.59;5073491;28;20261;-68
2023/12/21 07:21:53;;;;;;;1.03;0.97;;;;;;;6.18;100.00;98727.06;5073384;28;20273;-68
2023/12/21 07:24:20;;;;;;;1.30;1.30;;;;;;;6.21;100.00;98729.53;5073345;28;20204;-68
2023/12/21 07:26:47;;;;;;;1.10;1.10;;;;;;;6.30;100.00;98733.59;5073059;28;20207;-69
2023/12/21 07:29:14;;;;;;;1.03;0.97;;;;;;;6.39;100.00;98740.16;5073235;28;20688;-68
2023/12/21 07:31:41;;;;;;;1.20;1.20;;;;;;;6.40;100.00;98739.31;5073020;28;20204;-68
2023/12/21 07:34:09;;;;;;;0.80;0.80;;;;;;;6.41;100.00;98740.94;5073123;28;20720;-70
2023/12/21 07:36:36;;;;;;;1.20;1.20;;;;;;;6.48;100.00;98743.31;5072981;28;20220;-68
2023/12/21 07:39:04;;;;;;;1.13;1.13;;;;;;;6.55;100.00;98744.00;5072872;28;20200;-69
2023/12/21 07:41:31;;;;;;;0.80;0.80;;;;;;;6.61;100.00;98743.84;5073227;28;20215;-70
2023/12/21 07:43:58;;;;;;;2.30;2.20;;;;;;;6.70;100.00;98738.53;5072724;28;20756;-69
2023/12/21 07:46:25;;;;;;;4.13;1.33;;;;;;;6.77;100.00;98740.06;5072953;28;20299;-70
2023/12/21 07:48:51;;;;;;;2.33;1.13;;;;;;;6.78;100.00;98737.47;5072653;28;20207;-69
2023/12/21 07:51:20;;;;;;;0.87;0.87;;;;;;;6.91;100.00;98739.72;5072730;28;20659;-70
2023/12/21 07:53:46;;;;;;;1.50;1.43;;;;;;;6.97;100.00;98732.75;5072644;28;20745;-69
2023/12/21 07:56:13;;;;;;;4.53;0.90;;;;;;;7.07;100.00;98749.47;5072731;28;20204;-70
2023/12/21 07:58:40;;;;;;;0.73;0.73;;;;;;;7.11;100.00;98745.94;5072714;28;20281;-70
2023/12/21 08:01:07;;;;;;;1.50;1.00;;;;;;;7.28;100.00;98748.03;5071844;28;20208;-70
2023/12/21 08:03:34;;;;;;;2.75;2.17;;;;;;;7.33;100.00;98746.22;5071471;28;20528;-68
2023/12/21 08:06:00;;;;;;;2.37;2.27;;;;;;;7.46;100.00;98754.34;5072422;28;20207;-68
2023/12/21 08:08:28;;;;;;;1.13;0.87;;;;;;;7.57;100.00;98759.97;5072440;28;20638;-66
2023/12/21 08:10:55;;;;;;;2.92;2.65;;;;;;;7.67;100.00;98761.38;5070519;28;20476;-70
2023/12/21 08:13:22;;;;;;;2.53;1.67;;;;;;;7.75;100.00;98754.34;5071763;28;20738;-70
2023/12/21 08:15:48;;;;;;;3.70;2.43;;;;;;;7.72;100.00;98734.03;5070407;28;20200;-71
2023/12/21 08:18:15;;;;;;;1.57;1.57;;;;;;;7.80;100.00;98752.50;5067560;28;20220;-70
2023/12/21 08:20:42;;;;;;;1.20;1.20;;;;;;;7.92;100.00;98747.88;5067343;28;20262;-70
2023/12/21 08:23:09;;;;;;;1.40;1.40;;;;;;;8.01;100.00;98746.78;5066212;28;20235;-69
2023/12/21 08:25:37;;;;;;;1.77;1.27;;;;;;;8.12;99.96;98754.91;5068540;28;21003;-70
2023/12/21 08:28:05;;;;;;;2.13;1.07;;;;;;;8.17;100.00;98753.09;5066008;28;20196;-70
2023/12/21 08:30:32;;;;;;;1.73;1.63;;;;;;;8.27;100.00;98746.78;5069390;28;20204;-70
2023/12/21 08:32:58;;;;;;;0.90;0.90;;;;;;;8.38;99.51;98757.53;5069196;28;20257;-70
2023/12/21 08:35:26;;;;;;;0.83;0.83;;;;;;;8.43;98.21;98745.44;5066553;28;20211;-69
2023/12/21 08:37:56;;;;;;;1.40;1.30;;;;;;;8.52;97.49;98746.03;5067948;28;20708;-69
2023/12/21 08:40:23;;;;;;;1.33;1.13;;;;;;;8.61;96.90;98746.59;5066868;28;20627;-68
2023/12/21 08:42:51;;;;;;;1.23;1.13;;;;;;;8.64;96.72;98741.38;5068413;28;20294;-70
2023/12/21 08:45:18;;;;;;;2.23;1.37;;;;;;;8.82;96.99;98748.41;5069909;28;20257;-70
2023/12/21 08:47:44;;;;;;;1.47;1.47;;;;;;;8.87;96.58;98743.16;5067441;28;20200;-70
2023/12/21 08:50:12;;;;;;;2.10;2.00;;;;;;;8.95;95.58;98738.59;5069077;28;20196;-70
2023/12/21 08:52:38;;;;;;;3.53;2.37;;;;;;;9.07;94.37;98745.88;5066438;28;20235;-70
2023/12/21 08:55:06;;;;;;;1.13;1.13;;;;;;;9.10;94.41;98743.22;5067894;28;20561;-70
2023/12/21 08:57:36;;;;;;;1.77;1.50;;;;;;;9.23;93.94;98744.47;5068369;28;20296;-71
2023/12/21 09:00:05;;;;;;;1.60;1.30;;;;;;;9.30;94.11;98750.19;5068810;28;20204;-70
2023/12/21 09:02:33;;;;;;;0.70;0.70;;;;;;;9.38;94.64;98736.22;5066483;28;20209;-70
2023/12/21 09:05:00;;;;;;;1.33;1.23;;;;;;;9.56;92.82;98741.59;5067234;28;20231;-70
2023/12/21 09:07:26;;;;;;;2.33;2.10;;;;;;;9.53;92.82;98728.91;5067351;28;20199;-70
2023/12/21 09:09:53;;;;;;;1.80;1.70;;;;;;;9.63;92.26;98720.00;5068205;28;20200;-70
2023/12/21 09:12:20;;;;;;;2.03;1.93;;;;;;;9.77;91.26;98710.06;5069781;28;20656;-70
2023/12/21 09:14:46;;;;;;;2.20;1.33;;;;;;;9.92;90.03;98701.78;5072148;28;20206;-70
2023/12/21 09:17:15;;;;;;;5.67;1.27;;;;;;;9.97;88.74;98705.03;5072127;28;20273;-70
2023/12/21 09:19:43;;;;;;;1.70;1.23;;;;;;;10.04;89.27;98703.91;5076760;28;20295;-70
2023/12/21 09:22:09;;;;;;;1.73;1.63;;;;;;;10.05;89.05;98685.06;5072573;28;20204;-70
2023/12/21 09:24:37;;;;;;;2.00;1.63;;;;;;;10.14;89.12;98679.63;5073358;28;20215;-70
2023/12/21 09:27:04;;;;;;;1.53;1.50;;;;;;;10.26;89.05;98681.69;5073914;28;20619;-70
2023/12/21 09:29:31;;;;;;;1.13;1.13;;;;;;;10.37;87.96;98684.63;5075210;28;20200;-70
2023/12/21 09:31:58;;;;;;;0.90;0.90;;;;;;;10.42;86.20;98689.59;5078533;28;20646;-70
2023/12/21 09:34:27;;;;;;;6.40;2.03;;;;;;;10.52;86.00;98686.59;5071006;28;20792;-70
2023/12/21 09:36:54;;;;;;;2.87;1.40;;;;;;;10.63;85.31;98680.19;5071475;28;20207;-70
2023/12/21 09:39:21;;;;;;;1.50;1.50;;;;;;;10.64;86.22;98679.28;5072192;28;20249;-70
2023/12/21 09:41:49;;;;;;;1.90;1.40;;;;;;;10.72;85.58;98664.44;5073201;28;20254;-71
2023/12/21 09:44:17;;;;;;;1.93;1.20;;;;;;;10.79;84.31;98665.84;5072902;28;20208;-70
2023/12/21 09:46:45;;;;;;;1.17;1.17;;;;;;;10.85;83.40;98665.56;5072938;28;20223;-72
2023/12/21 09:49:14;;;;;;;1.43;1.33;;;;;;;10.93;82.94;98663.50;5073058;28;20237;-70
2023/12/21 09:51:44;;;;;;;1.10;1.10;;;;;;;11.00;81.08;98662.34;5073074;28;20293;-70
2023/12/21 09:54:11;;;;;;;1.47;1.47;;;;;;;11.07;80.85;98648.34;5073709;28;20211;-69
2023/12/21 09:56:38;;;;;;;1.00;1.00;;;;;;;11.09;81.87;98649.09;5075287;28;20261;-71
2023/12/21 09:59:07;;;;;;;1.33;1.30;;;;;;;11.00;80.90;98617.00;5072323;28;20268;-70
2023/12/21 10:01:34;;;;;;;0.87;0.87;;;;;;;11.24;81.41;98635.63;5073259;28;20207;-69
2023/12/21 10:04:01;;;;;;;1.03;1.03;;;;;;;11.23;81.06;98627.97;5071785;28;20261;-70
2023/12/21 10:06:27;;;;;;;2.33;0.97;;;;;;;11.28;80.68;98626.84;5072230;28;20257;-70
2023/12/21 10:08:56;;;;;;;1.27;1.27;;;;;;;11.34;80.35;98626.56;5074130;28;20196;-70
2023/12/21 10:11:23;;;;;;;2.83;1.37;;;;;;;11.38;80.14;98617.84;5072239;28;20674;-70
2023/12/21 10:13:50;;;;;;;2.03;1.37;;;;;;;11.43;79.78;98615.91;5069783;28;20204;-69
2023/12/21 10:16:17;;;;;;;1.50;1.40;;;;;;;11.49;79.50;98607.94;5072651;28;20207;-70
2023/12/21 10:18:44;;;;;;;2.30;1.60;;;;;;;11.52;80.19;98605.22;5072344;28;20220;-70
2023/12/21 10:21:11;;;;;;;1.07;1.07;;;;;;;11.63;80.31;98607.28;5072540;28;20196;-71
2023/12/21 10:23:39;;;;;;;1.00;1.00;;;;;;;11.63;78.22;98606.47;5071883;28;20280;-70
2023/12/21 10:26:07;;;;;;;1.00;1.00;;;;;;;11.54;78.50;98592.28;5072520;28;20235;-70
2023/12/21 10:28:35;;;;;;;1.80;1.20;;;;;;;11.66;78.61;98596.03;5074159;28;20196;-69
2023/12/21 10:31:03;;;;;;;1.93;1.83;;;;;;;11.69;78.57;98590.75;5072470;28;20269;-70
2023/12/21 10:33:30;;;;;;;0.90;0.90;;;;;;;11.67;77.17;98589.97;5071464;28;20221;-70
2023/12/21 10:35:58;;;;;;;1.17;1.17;;;;;;;11.66;78.79;98590.91;5073958;28;20204;-68
2023/12/21 10:38:25;;;;;;;1.20;1.20;;;;;;;11.67;79.29;98577.97;5071248;28;20665;-70
2023/12/21 10:40:52;;;;;;;2.47;1.47;;;;;;;11.80;78.63;98588.53;5070557;28;20196;-68
2023/12/21 10:43:21;;;;;;;5.53;1.87;;;;;;;11.85;78.06;98581.44;5068942;28;20208;-69
2023/12/21 10:45:49;;;;;;;1.40;1.30;;;;;;;11.88;79.80;98578.72;5074307;28;20229;-69
2023/12/21 10:48:19;;;;;;;1.17;1.17;;;;;;;11.96;80.12;98584.31;5071820;28;20200;-68
2023/12/21 10:50:49;;;;;;;1.17;1.03;;;;;;;11.98;80.09;98580.78;5072377;28;20751;-67
2023/12/21 10:53:21;;;;;;;2.40;1.30;;;;;;;12.07;80.09;98577.75;5072282;28;20599;-68
2023/12/21 10:55:49;;;;;;;1.17;1.17;;;;;;;12.12;80.34;98580.09;5072005;28;20199;-69
2023/12/21 10:58:16;;;;;;;1.40;1.10;;;;;;;11.97;79.05;98556.00;5071177;28;20212;-69
2023/12/21 11:00:45;;;;;;;1.90;1.30;;;;;;;12.15;77.68;98581.69;5072261;28;20198;-69
2023/12/21 11:03:16;;;;;;;1.27;1.17;;;;;;;12.07;77.37;98574.34;5071094;28;20192;-68
2023/12/21 11:05:44;;;;;;;1.40;1.30;;;;;;;12.11;76.35;98573.31;5074323;28;20196;-68
2023/12/21 11:08:11;;;;;;;1.73;1.60;;;;;;;12.07;75.47;98579.50;5071066;28;20250;-69
2023/12/21 11:10:38;;;;;;;1.47;1.10;;;;;;;11.94;74.99;98563.03;5072477;28;20200;-68
2023/12/21 11:13:05;;;;;;;1.13;1.13;;;;;;;12.08;74.88;98573.47;5071925;28;20196;-68
2023/12/21 11:15:33;;;;;;;1.57;0.80;;;;;;;12.16;75.91;98562.78;5067137;28;20665;-68
2023/12/21 11:18:05;;;;;;;1.17;1.07;;;;;;;12.06;75.79;98544.44;5069499;28;20224;-68
2023/12/21 11:20:37;;;;;;;1.40;1.37;;;;;;;12.09;76.57;98549.41;5072163;28;20200;-68
2023/12/21 11:23:05;;;;;;;1.13;1.07;;;;;;;12.05;76.40;98532.50;5072056;28;20789;-68
2023/12/21 11:25:32;;;;;;;1.07;1.07;;;;;;;12.01;76.52;98538.69;5068955;28;20250;-68
2023/12/21 11:27:59;;;;;;;2.73;1.10;;;;;;;12.17;77.89;98542.16;5069737;28;20204;-68
2023/12/21 11:30:29;;;;;;;1.03;1.03;;;;;;;12.36;76.97;98537.75;5070870;28;20207;-68
2023/12/21 11:33:06;;;;;;;1.83;1.83;;;;;;;12.44;74.96;98545.09;5070391;28;20269;-68